sensor_id;sensor_type;location;lat;lon;timestamp;temperature;humidity
34768;DHT22;21755;43.608;1.236;2023-02-12T00:00:09;3.00;99.90
34768;DHT22;21755;43.608;1.236;2023-02-12T00:02:35;2.90;99.90
34768;DHT22;21755;43.608;1.236;2023-02-12T00:05:01;2.90;99.90
34768;DHT22;21755;43.608;1.236;2023-02-12T00:07:29;2.90;99.90
34768;DHT22;21755;43.608;1.236;2023-02-12T00:09:55;2.90;99.90
34768;DHT22;21755;43.608;1.236;2023-02-12T00:12:21;2.90;99.90
34768;DHT22;21755;43.608;1.236;2023-02-12T00:14:47;2.90;99.90
34768;DHT22;21755;43.608;1.236;2023-02-12T00:17:13;2.90;99.90
34768;DHT22;21755;43.608;1.236;2023-02-12T00:19:39;2.90;99.90
34768;DHT22;21755;43.608;1.236;2023-02-12T00:22:05;2.80;99.90
34768;DHT22;21755;43.608;1.236;2023-02-12T00:24:31;2.70;99.90
34768;DHT22;21755;43.608;1.236;2023-02-12T00:26:57;2.70;99.90
34768;DHT22;21755;43.608;1.236;2023-02-12T00:29:23;2.70;99.90
34768;DHT22;21755;43.608;1.236;2023-02-12T00:31:49;2.70;99.90
34768;DHT22;21755;43.608;1.236;2023-02-12T00:34:15;2.60;99.90
34768;DHT22;21755;43.608;1.236;2023-02-12T00:36:41;2.60;99.90
34768;DHT22;21755;43.608;1.236;2023-02-12T00:39:07;2.60;99.90
34768;DHT22;21755;43.608;1.236;2023-02-12T00:41:34;2.60;99.90
34768;DHT22;21755;43.608;1.236;2023-02-12T00:44:00;2.50;99.90
34768;DHT22;21755;43.608;1.236;2023-02-12T00:46:26;2.50;99.90
34768;DHT22;21755;43.608;1.236;2023-02-12T00:48:52;2.50;99.90
34768;DHT22;21755;43.608;1.236;2023-02-12T00:51:18;2.50;99.90
34768;DHT22;21755;43.608;1.236;2023-02-12T00:53:43;2.50;99.90
34768;DHT22;21755;43.608;1.236;2023-02-12T00:56:10;2.40;99.90
34768;DHT22;21755;43.608;1.236;2023-02-12T00:58:36;2.30;99.90
34768;DHT22;21755;43.608;1.236;2023-02-12T01:01:01;2.30;99.90
34768;DHT22;21755;43.608;1.236;2023-02-12T01:03:27;2.30;99.90
34768;DHT22;21755;43.608;1.236;2023-02-12T01:05:53;2.30;99.90
34768;DHT22;21755;43.608;1.236;2023-02-12T01:08:19;2.30;99.90
34768;DHT22;21755;43.608;1.236;2023-02-12T01:10:54;2.30;99.90
34768;DHT22;21755;43.608;1.236;2023-02-12T01:13:20;2.30;99.90
34768;DHT22;21755;43.608;1.236;2023-02-12T01:15:46;2.40;99.90
34768;DHT22;21755;43.608;1.236;2023-02-12T01:18:12;2.40;99.90
34768;DHT22;21755;43.608;1.236;2023-02-12T01:20:40;2.50;99.90
34768;DHT22;21755;43.608;1.236;2023-02-12T01:23:06;2.50;99.90
34768;DHT22;21755;43.608;1.236;2023-02-12T01:25:33;2.60;99.90
34768;DHT22;21755;43.608;1.236;2023-02-12T01:27:59;2.60;99.90
34768;DHT22;21755;43.608;1.236;2023-02-12T01:30:24;2.70;99.90
34768;DHT22;21755;43.608;1.236;2023-02-12T01:32:50;2.70;99.90
34768;DHT22;21755;43.608;1.236;2023-02-12T01:35:16;2.70;99.90
34768;DHT22;21755;43.608;1.236;2023-02-12T01:37:42;2.80;99.90
34768;DHT22;21755;43.608;1.236;2023-02-12T01:40:10;2.80;99.90
34768;DHT22;21755;43.608;1.236;2023-02-12T01:42:37;2.80;99.90
34768;DHT22;21755;43.608;1.236;2023-02-12T01:47:44;2.90;99.90
34768;DHT22;21755;43.608;1.236;2023-02-12T01:50:13;2.90;99.90
34768;DHT22;21755;43.608;1.236;2023-02-12T01:52:43;2.80;99.90
34768;DHT22;21755;43.608;1.236;2023-02-12T01:55:11;2.80;99.90
34768;DHT22;21755;43.608;1.236;2023-02-12T01:57:41;2.90;99.90
34768;DHT22;21755;43.608;1.236;2023-02-12T02:00:12;2.90;99.90
34768;DHT22;21755;43.608;1.236;2023-02-12T02:02:39;2.80;99.90
34768;DHT22;21755;43.608;1.236;2023-02-12T02:05:06;2.80;99.90
34768;DHT22;21755;43.608;1.236;2023-02-12T02:07:32;2.80;99.90
34768;DHT22;21755;43.608;1.236;2023-02-12T02:09:58;2.80;99.90
34768;DHT22;21755;43.608;1.236;2023-02-12T02:12:26;2.70;99.90
34768;DHT22;21755;43.608;1.236;2023-02-12T02:15:11;2.70;99.90
34768;DHT22;21755;43.608;1.236;2023-02-12T02:34:54;2.40;99.90
34768;DHT22;21755;43.608;1.236;2023-02-12T02:38:15;2.40;99.90
34768;DHT22;21755;43.608;1.236;2023-02-12T02:40:23;2.30;99.90
34768;DHT22;21755;43.608;1.236;2023-02-12T02:43:05;2.30;99.90
34768;DHT22;21755;43.608;1.236;2023-02-12T02:45:47;2.20;99.90
34768;DHT22;21755;43.608;1.236;2023-02-12T02:48:20;2.20;99.90
34768;DHT22;21755;43.608;1.236;2023-02-12T02:50:51;2.20;99.90
34768;DHT22;21755;43.608;1.236;2023-02-12T02:53:36;2.20;99.90
34768;DHT22;21755;43.608;1.236;2023-02-12T02:56:06;2.20;99.90
34768;DHT22;21755;43.608;1.236;2023-02-12T02:58:42;2.10;99.90
34768;DHT22;21755;43.608;1.236;2023-02-12T03:01:15;2.00;99.90
34768;DHT22;21755;43.608;1.236;2023-02-12T03:04:02;1.90;99.90
34768;DHT22;21755;43.608;1.236;2023-02-12T03:06:35;1.90;99.90
34768;DHT22;21755;43.608;1.236;2023-02-12T03:09:21;1.80;99.90
34768;DHT22;21755;43.608;1.236;2023-02-12T03:11:47;1.70;99.90
34768;DHT22;21755;43.608;1.236;2023-02-12T03:14:30;1.70;99.90
34768;DHT22;21755;43.608;1.236;2023-02-12T03:19:29;1.70;99.90
34768;DHT22;21755;43.608;1.236;2023-02-12T03:22:00;1.60;99.90
34768;DHT22;21755;43.608;1.236;2023-02-12T03:24:35;1.60;99.90
34768;DHT22;21755;43.608;1.236;2023-02-12T03:27:19;1.60;99.90
34768;DHT22;21755;43.608;1.236;2023-02-12T03:29:46;1.50;99.90
34768;DHT22;21755;43.608;1.236;2023-02-12T03:32:32;1.50;99.90
34768;DHT22;21755;43.608;1.236;2023-02-12T03:40:37;1.40;99.90
34768;DHT22;21755;43.608;1.236;2023-02-12T03:43:26;1.20;99.90
34768;DHT22;21755;43.608;1.236;2023-02-12T03:46:20;1.20;99.90
34768;DHT22;21755;43.608;1.236;2023-02-12T03:49:33;1.20;99.90
34768;DHT22;21755;43.608;1.236;2023-02-12T03:54:00;1.00;99.90
34768;DHT22;21755;43.608;1.236;2023-02-12T03:56:34;1.00;99.90
34768;DHT22;21755;43.608;1.236;2023-02-12T03:59:03;0.90;99.90
34768;DHT22;21755;43.608;1.236;2023-02-12T04:01:31;0.80;99.90
34768;DHT22;21755;43.608;1.236;2023-02-12T04:04:03;0.90;99.90
34768;DHT22;21755;43.608;1.236;2023-02-12T04:06:30;0.90;99.90
34768;DHT22;21755;43.608;1.236;2023-02-12T04:08:58;0.90;99.90
34768;DHT22;21755;43.608;1.236;2023-02-12T04:14:14;0.80;99.90
34768;DHT22;21755;43.608;1.236;2023-02-12T04:16:53;0.70;99.90
34768;DHT22;21755;43.608;1.236;2023-02-12T04:22:53;0.80;99.90
34768;DHT22;21755;43.608;1.236;2023-02-12T04:30:43;0.80;99.90
34768;DHT22;21755;43.608;1.236;2023-02-12T04:33:14;0.80;99.90
34768;DHT22;21755;43.608;1.236;2023-02-12T04:35:46;0.70;99.90
34768;DHT22;21755;43.608;1.236;2023-02-12T04:38:23;0.70;99.90
34768;DHT22;21755;43.608;1.236;2023-02-12T04:40:51;0.70;99.90
34768;DHT22;21755;43.608;1.236;2023-02-12T04:43:34;0.70;99.90
34768;DHT22;21755;43.608;1.236;2023-02-12T04:46:03;0.70;99.90
34768;DHT22;21755;43.608;1.236;2023-02-12T04:48:29;0.70;99.90
34768;DHT22;21755;43.608;1.236;2023-02-12T04:50:55;0.70;99.90
34768;DHT22;21755;43.608;1.236;2023-02-12T04:53:21;0.70;99.90
34768;DHT22;21755;43.608;1.236;2023-02-12T04:55:47;0.60;99.90
34768;DHT22;21755;43.608;1.236;2023-02-12T04:58:16;0.50;99.90
34768;DHT22;21755;43.608;1.236;2023-02-12T05:00:42;0.40;99.90
34768;DHT22;21755;43.608;1.236;2023-02-12T05:03:08;0.30;99.90
34768;DHT22;21755;43.608;1.236;2023-02-12T05:05:34;0.30;99.90
34768;DHT22;21755;43.608;1.236;2023-02-12T05:07:59;0.30;99.90
34768;DHT22;21755;43.608;1.236;2023-02-12T05:10:25;0.40;99.90
34768;DHT22;21755;43.608;1.236;2023-02-12T05:12:52;0.40;99.90
34768;DHT22;21755;43.608;1.236;2023-02-12T05:15:18;0.30;99.90
34768;DHT22;21755;43.608;1.236;2023-02-12T05:17:44;0.20;99.90
34768;DHT22;21755;43.608;1.236;2023-02-12T05:20:11;0.20;99.90
34768;DHT22;21755;43.608;1.236;2023-02-12T05:22:37;0.20;99.90
34768;DHT22;21755;43.608;1.236;2023-02-12T05:25:03;0.20;99.90
34768;DHT22;21755;43.608;1.236;2023-02-12T05:27:29;0.20;99.90
34768;DHT22;21755;43.608;1.236;2023-02-12T05:29:55;0.20;99.90
34768;DHT22;21755;43.608;1.236;2023-02-12T05:32:22;0.10;99.90
34768;DHT22;21755;43.608;1.236;2023-02-12T05:34:48;0.10;99.90
34768;DHT22;21755;43.608;1.236;2023-02-12T05:37:14;0.20;99.90
34768;DHT22;21755;43.608;1.236;2023-02-12T05:39:40;0.20;99.90
34768;DHT22;21755;43.608;1.236;2023-02-12T05:42:06;0.20;99.90
34768;DHT22;21755;43.608;1.236;2023-02-12T05:44:32;0.20;99.90
34768;DHT22;21755;43.608;1.236;2023-02-12T05:46:57;0.20;99.90
34768;DHT22;21755;43.608;1.236;2023-02-12T05:49:23;0.10;99.90
34768;DHT22;21755;43.608;1.236;2023-02-12T05:51:49;0.00;99.90
34768;DHT22;21755;43.608;1.236;2023-02-12T05:54:15;0.00;99.90
34768;DHT22;21755;43.608;1.236;2023-02-12T05:56:43;0.00;99.90
34768;DHT22;21755;43.608;1.236;2023-02-12T05:59:18;0.10;99.90
34768;DHT22;21755;43.608;1.236;2023-02-12T06:01:47;0.00;99.90
34768;DHT22;21755;43.608;1.236;2023-02-12T06:04:17;0.00;99.90
34768;DHT22;21755;43.608;1.236;2023-02-12T06:06:43;-0.10;99.90
34768;DHT22;21755;43.608;1.236;2023-02-12T06:09:11;-0.20;99.90
34768;DHT22;21755;43.608;1.236;2023-02-12T06:11:37;-0.20;99.90
34768;DHT22;21755;43.608;1.236;2023-02-12T06:14:05;-0.10;99.90
34768;DHT22;21755;43.608;1.236;2023-02-12T06:16:33;-0.10;99.90
34768;DHT22;21755;43.608;1.236;2023-02-12T06:19:00;-0.20;99.90
34768;DHT22;21755;43.608;1.236;2023-02-12T06:21:27;-0.20;99.90
34768;DHT22;21755;43.608;1.236;2023-02-12T06:23:54;-0.30;99.90
34768;DHT22;21755;43.608;1.236;2023-02-12T06:26:21;-0.30;99.90
34768;DHT22;21755;43.608;1.236;2023-02-12T06:28:47;-0.40;99.90
34768;DHT22;21755;43.608;1.236;2023-02-12T06:31:26;-0.40;99.90
34768;DHT22;21755;43.608;1.236;2023-02-12T06:33:54;-0.40;99.90
34768;DHT22;21755;43.608;1.236;2023-02-12T06:36:20;-0.40;99.90
34768;DHT22;21755;43.608;1.236;2023-02-12T06:38:47;-0.40;99.90
34768;DHT22;21755;43.608;1.236;2023-02-12T06:41:13;-0.50;99.90
34768;DHT22;21755;43.608;1.236;2023-02-12T06:43:39;-0.50;99.90
34768;DHT22;21755;43.608;1.236;2023-02-12T06:46:06;-0.50;99.90
34768;DHT22;21755;43.608;1.236;2023-02-12T06:48:32;-0.50;99.90
34768;DHT22;21755;43.608;1.236;2023-02-12T06:53:35;-0.50;99.90
34768;DHT22;21755;43.608;1.236;2023-02-12T06:56:05;-0.50;99.90
34768;DHT22;21755;43.608;1.236;2023-02-12T06:58:36;-0.60;99.90
34768;DHT22;21755;43.608;1.236;2023-02-12T07:01:11;-0.60;99.90
34768;DHT22;21755;43.608;1.236;2023-02-12T07:03:41;-0.60;99.90
34768;DHT22;21755;43.608;1.236;2023-02-12T07:06:07;-0.60;99.90
34768;DHT22;21755;43.608;1.236;2023-02-12T07:08:33;-0.60;99.90
34768;DHT22;21755;43.608;1.236;2023-02-12T07:10:59;-0.50;99.90
34768;DHT22;21755;43.608;1.236;2023-02-12T07:13:25;-0.50;99.90
34768;DHT22;21755;43.608;1.236;2023-02-12T07:15:51;-0.60;99.90
34768;DHT22;21755;43.608;1.236;2023-02-12T07:18:16;-0.50;99.90
34768;DHT22;21755;43.608;1.236;2023-02-12T07:20:43;-0.40;99.90
34768;DHT22;21755;43.608;1.236;2023-02-12T07:23:11;-0.40;99.90
34768;DHT22;21755;43.608;1.236;2023-02-12T07:25:37;-0.40;99.90
34768;DHT22;21755;43.608;1.236;2023-02-12T07:28:03;-0.40;99.90
34768;DHT22;21755;43.608;1.236;2023-02-12T07:30:29;-0.50;99.90
34768;DHT22;21755;43.608;1.236;2023-02-12T07:32:55;-0.50;99.90
34768;DHT22;21755;43.608;1.236;2023-02-12T07:35:21;-0.40;99.90
34768;DHT22;21755;43.608;1.236;2023-02-12T07:37:47;-0.40;99.90
34768;DHT22;21755;43.608;1.236;2023-02-12T07:40:13;-0.40;99.90
34768;DHT22;21755;43.608;1.236;2023-02-12T07:42:39;-0.40;99.90
34768;DHT22;21755;43.608;1.236;2023-02-12T07:45:05;-0.40;99.90
34768;DHT22;21755;43.608;1.236;2023-02-12T07:47:32;-0.40;99.90
34768;DHT22;21755;43.608;1.236;2023-02-12T07:49:57;-0.40;99.90
34768;DHT22;21755;43.608;1.236;2023-02-12T07:52:23;-0.30;99.90
34768;DHT22;21755;43.608;1.236;2023-02-12T07:54:49;-0.10;99.90
34768;DHT22;21755;43.608;1.236;2023-02-12T07:57:15;0.00;99.90
34768;DHT22;21755;43.608;1.236;2023-02-12T07:59:41;0.00;99.90
34768;DHT22;21755;43.608;1.236;2023-02-12T08:02:08;0.00;99.90
34768;DHT22;21755;43.608;1.236;2023-02-12T08:04:34;0.10;99.90
34768;DHT22;21755;43.608;1.236;2023-02-12T08:07:00;0.10;99.90
34768;DHT22;21755;43.608;1.236;2023-02-12T08:09:28;0.10;99.90
34768;DHT22;21755;43.608;1.236;2023-02-12T08:11:55;0.30;99.90
34768;DHT22;21755;43.608;1.236;2023-02-12T08:14:21;0.40;99.90
34768;DHT22;21755;43.608;1.236;2023-02-12T08:16:48;0.50;99.90
34768;DHT22;21755;43.608;1.236;2023-02-12T08:19:14;0.70;99.90
34768;DHT22;21755;43.608;1.236;2023-02-12T08:21:41;0.80;99.90
34768;DHT22;21755;43.608;1.236;2023-02-12T08:24:08;0.90;99.90
34768;DHT22;21755;43.608;1.236;2023-02-12T08:26:37;1.00;99.90
34768;DHT22;21755;43.608;1.236;2023-02-12T08:29:12;1.10;99.90
34768;DHT22;21755;43.608;1.236;2023-02-12T08:31:41;1.30;99.90
34768;DHT22;21755;43.608;1.236;2023-02-12T08:34:16;1.50;99.90
34768;DHT22;21755;43.608;1.236;2023-02-12T08:36:43;1.60;99.90
34768;DHT22;21755;43.608;1.236;2023-02-12T08:39:09;1.70;99.90
34768;DHT22;21755;43.608;1.236;2023-02-12T08:41:36;1.80;99.90
34768;DHT22;21755;43.608;1.236;2023-02-12T08:44:03;1.90;99.90
34768;DHT22;21755;43.608;1.236;2023-02-12T08:46:34;2.00;99.90
34768;DHT22;21755;43.608;1.236;2023-02-12T08:49:06;2.20;99.90
34768;DHT22;21755;43.608;1.236;2023-02-12T08:51:36;2.20;99.90
34768;DHT22;21755;43.608;1.236;2023-02-12T08:54:05;2.40;99.90
34768;DHT22;21755;43.608;1.236;2023-02-12T08:56:33;2.50;99.90
34768;DHT22;21755;43.608;1.236;2023-02-12T08:59:01;2.50;99.90
34768;DHT22;21755;43.608;1.236;2023-02-12T09:01:29;2.60;99.90
34768;DHT22;21755;43.608;1.236;2023-02-12T09:03:55;2.70;99.90
34768;DHT22;21755;43.608;1.236;2023-02-12T09:06:22;2.90;99.90
34768;DHT22;21755;43.608;1.236;2023-02-12T09:08:49;3.00;99.90
34768;DHT22;21755;43.608;1.236;2023-02-12T09:11:20;3.10;99.90
34768;DHT22;21755;43.608;1.236;2023-02-12T09:13:59;3.30;99.90
34768;DHT22;21755;43.608;1.236;2023-02-12T09:16:30;3.40;99.90
34768;DHT22;21755;43.608;1.236;2023-02-12T09:18:56;3.50;99.90
34768;DHT22;21755;43.608;1.236;2023-02-12T09:21:22;3.60;99.90
34768;DHT22;21755;43.608;1.236;2023-02-12T09:23:49;3.60;99.90
34768;DHT22;21755;43.608;1.236;2023-02-12T09:26:21;3.70;99.90
34768;DHT22;21755;43.608;1.236;2023-02-12T09:28:49;3.90;99.90
34768;DHT22;21755;43.608;1.236;2023-02-12T09:31:20;4.00;99.90
34768;DHT22;21755;43.608;1.236;2023-02-12T09:33:47;4.10;99.90
34768;DHT22;21755;43.608;1.236;2023-02-12T09:36:15;4.20;99.90
34768;DHT22;21755;43.608;1.236;2023-02-12T09:38:42;4.30;99.90
34768;DHT22;21755;43.608;1.236;2023-02-12T09:44:32;4.50;99.90
34768;DHT22;21755;43.608;1.236;2023-02-12T09:47:19;4.60;99.90
34768;DHT22;21755;43.608;1.236;2023-02-12T09:52:39;5.00;99.90
34768;DHT22;21755;43.608;1.236;2023-02-12T09:55:05;5.10;99.90
34768;DHT22;21755;43.608;1.236;2023-02-12T09:57:36;5.30;99.90
34768;DHT22;21755;43.608;1.236;2023-02-12T14:50:19;12.90;99.90
34768;DHT22;21755;43.608;1.236;2023-02-12T14:52:59;12.80;99.90
34768;DHT22;21755;43.608;1.236;2023-02-12T14:55:32;12.90;99.90
34768;DHT22;21755;43.608;1.236;2023-02-12T14:58:02;13.00;99.90
34768;DHT22;21755;43.608;1.236;2023-02-12T15:00:35;13.00;99.90
34768;DHT22;21755;43.608;1.236;2023-02-12T15:06:02;13.00;99.90
34768;DHT22;21755;43.608;1.236;2023-02-12T15:08:51;12.90;99.70
34768;DHT22;21755;43.608;1.236;2023-02-12T15:11:49;12.90;99.90
34768;DHT22;21755;43.608;1.236;2023-02-12T15:14:23;12.90;99.90
34768;DHT22;21755;43.608;1.236;2023-02-12T15:34:34;12.80;99.90
34768;DHT22;21755;43.608;1.236;2023-02-12T15:37:03;12.70;99.90
34768;DHT22;21755;43.608;1.236;2023-02-12T15:39:48;12.70;99.90
34768;DHT22;21755;43.608;1.236;2023-02-12T15:42:24;12.70;99.90
34768;DHT22;21755;43.608;1.236;2023-02-12T15:44:50;12.70;99.90
34768;DHT22;21755;43.608;1.236;2023-02-12T15:47:16;12.60;99.90
34768;DHT22;21755;43.608;1.236;2023-02-12T15:49:49;12.60;99.90
34768;DHT22;21755;43.608;1.236;2023-02-12T15:52:20;12.50;99.90
34768;DHT22;21755;43.608;1.236;2023-02-12T15:54:49;12.50;99.90
34768;DHT22;21755;43.608;1.236;2023-02-12T15:57:22;12.50;99.90
34768;DHT22;21755;43.608;1.236;2023-02-12T15:59:50;12.50;99.90
34768;DHT22;21755;43.608;1.236;2023-02-12T16:02:25;12.40;99.90
34768;DHT22;21755;43.608;1.236;2023-02-12T16:04:59;12.40;99.90
34768;DHT22;21755;43.608;1.236;2023-02-12T16:07:29;12.30;99.90
34768;DHT22;21755;43.608;1.236;2023-02-12T16:09:56;12.30;99.90
34768;DHT22;21755;43.608;1.236;2023-02-12T16:12:25;12.20;99.90
34768;DHT22;21755;43.608;1.236;2023-02-12T16:14:57;12.20;99.90
34768;DHT22;21755;43.608;1.236;2023-02-12T16:22:31;11.90;99.90
34768;DHT22;21755;43.608;1.236;2023-02-12T16:25:00;11.90;99.90
34768;DHT22;21755;43.608;1.236;2023-02-12T16:27:31;11.80;99.90
34768;DHT22;21755;43.608;1.236;2023-02-12T16:30:21;11.80;99.90
34768;DHT22;21755;43.608;1.236;2023-02-12T16:32:48;11.70;99.90
34768;DHT22;21755;43.608;1.236;2023-02-12T16:37:46;11.60;99.90
34768;DHT22;21755;43.608;1.236;2023-02-12T16:50:49;11.30;99.90
34768;DHT22;21755;43.608;1.236;2023-02-12T16:53:37;11.20;99.90
34768;DHT22;21755;43.608;1.236;2023-02-12T16:56:12;11.10;99.90
34768;DHT22;21755;43.608;1.236;2023-02-12T16:58:40;11.00;99.90
34768;DHT22;21755;43.608;1.236;2023-02-12T17:01:06;10.90;99.90
34768;DHT22;21755;43.608;1.236;2023-02-12T17:03:33;10.80;99.90
34768;DHT22;21755;43.608;1.236;2023-02-12T17:05:59;10.80;99.90
34768;DHT22;21755;43.608;1.236;2023-02-12T17:08:25;10.70;99.90
34768;DHT22;21755;43.608;1.236;2023-02-12T17:10:51;10.60;99.90
34768;DHT22;21755;43.608;1.236;2023-02-12T17:13:17;10.60;99.90
34768;DHT22;21755;43.608;1.236;2023-02-12T17:15:50;10.50;99.90
34768;DHT22;21755;43.608;1.236;2023-02-12T17:18:18;10.40;99.90
34768;DHT22;21755;43.608;1.236;2023-02-12T17:20:48;10.30;99.90
34768;DHT22;21755;43.608;1.236;2023-02-12T17:23:16;10.20;99.90
34768;DHT22;21755;43.608;1.236;2023-02-12T17:25:42;10.10;99.90
34768;DHT22;21755;43.608;1.236;2023-02-12T17:28:07;10.00;99.90
34768;DHT22;21755;43.608;1.236;2023-02-12T17:30:34;9.90;99.90
34768;DHT22;21755;43.608;1.236;2023-02-12T17:33:00;9.80;99.90
34768;DHT22;21755;43.608;1.236;2023-02-12T17:35:25;9.70;99.90
34768;DHT22;21755;43.608;1.236;2023-02-12T17:37:51;9.70;99.90
34768;DHT22;21755;43.608;1.236;2023-02-12T17:40:17;9.60;99.90
34768;DHT22;21755;43.608;1.236;2023-02-12T17:42:43;9.50;99.90
34768;DHT22;21755;43.608;1.236;2023-02-12T17:45:09;9.50;99.90
34768;DHT22;21755;43.608;1.236;2023-02-12T17:47:35;9.30;99.90
34768;DHT22;21755;43.608;1.236;2023-02-12T17:50:14;9.30;99.90
34768;DHT22;21755;43.608;1.236;2023-02-12T17:52:41;9.20;99.90
34768;DHT22;21755;43.608;1.236;2023-02-12T17:55:08;9.20;99.90
34768;DHT22;21755;43.608;1.236;2023-02-12T17:57:36;9.10;99.90
34768;DHT22;21755;43.608;1.236;2023-02-12T18:00:03;8.90;99.90
34768;DHT22;21755;43.608;1.236;2023-02-12T18:02:29;8.90;99.90
34768;DHT22;21755;43.608;1.236;2023-02-12T18:04:55;8.80;99.90
34768;DHT22;21755;43.608;1.236;2023-02-12T18:07:21;8.70;99.90
34768;DHT22;21755;43.608;1.236;2023-02-12T18:09:47;8.60;99.90
34768;DHT22;21755;43.608;1.236;2023-02-12T18:12:13;8.50;99.90
34768;DHT22;21755;43.608;1.236;2023-02-12T18:14:39;8.50;99.90
34768;DHT22;21755;43.608;1.236;2023-02-12T18:17:04;8.40;99.90
34768;DHT22;21755;43.608;1.236;2023-02-12T18:19:30;8.40;99.90
34768;DHT22;21755;43.608;1.236;2023-02-12T18:21:56;8.30;99.90
34768;DHT22;21755;43.608;1.236;2023-02-12T18:24:22;8.20;99.90
34768;DHT22;21755;43.608;1.236;2023-02-12T18:26:49;8.10;99.90
34768;DHT22;21755;43.608;1.236;2023-02-12T18:29:14;8.00;99.90
34768;DHT22;21755;43.608;1.236;2023-02-12T18:31:40;7.90;99.90
34768;DHT22;21755;43.608;1.236;2023-02-12T18:34:06;7.70;99.90
34768;DHT22;21755;43.608;1.236;2023-02-12T18:36:32;7.60;99.90
34768;DHT22;21755;43.608;1.236;2023-02-12T18:38:59;7.50;99.90
34768;DHT22;21755;43.608;1.236;2023-02-12T18:41:28;7.40;99.90
34768;DHT22;21755;43.608;1.236;2023-02-12T18:43:57;7.30;99.90
34768;DHT22;21755;43.608;1.236;2023-02-12T18:46:30;7.20;99.90
34768;DHT22;21755;43.608;1.236;2023-02-12T18:48:56;7.00;99.90
34768;DHT22;21755;43.608;1.236;2023-02-12T18:51:24;7.00;99.90
34768;DHT22;21755;43.608;1.236;2023-02-12T18:56:20;6.70;99.90
34768;DHT22;21755;43.608;1.236;2023-02-12T18:58:46;6.60;99.90
34768;DHT22;21755;43.608;1.236;2023-02-12T19:01:18;6.50;99.90
34768;DHT22;21755;43.608;1.236;2023-02-12T19:03:44;6.40;99.90
34768;DHT22;21755;43.608;1.236;2023-02-12T19:06:11;6.30;99.90
34768;DHT22;21755;43.608;1.236;2023-02-12T19:08:37;6.30;99.90
34768;DHT22;21755;43.608;1.236;2023-02-12T19:11:05;6.20;99.90
34768;DHT22;21755;43.608;1.236;2023-02-12T19:13:31;6.20;99.90
34768;DHT22;21755;43.608;1.236;2023-02-12T19:15:57;6.20;99.90
34768;DHT22;21755;43.608;1.236;2023-02-12T19:18:23;6.20;99.90
34768;DHT22;21755;43.608;1.236;2023-02-12T19:20:49;6.00;99.90
34768;DHT22;21755;43.608;1.236;2023-02-12T19:23:15;5.90;99.90
34768;DHT22;21755;43.608;1.236;2023-02-12T19:25:41;5.90;99.90
34768;DHT22;21755;43.608;1.236;2023-02-12T19:28:11;5.80;99.90
34768;DHT22;21755;43.608;1.236;2023-02-12T19:30:38;5.70;99.90
34768;DHT22;21755;43.608;1.236;2023-02-12T19:33:05;5.70;99.90
34768;DHT22;21755;43.608;1.236;2023-02-12T19:35:32;5.60;99.90
34768;DHT22;21755;43.608;1.236;2023-02-12T19:37:58;5.50;99.90
34768;DHT22;21755;43.608;1.236;2023-02-12T19:40:24;5.30;99.90
34768;DHT22;21755;43.608;1.236;2023-02-12T19:42:50;5.10;99.90
34768;DHT22;21755;43.608;1.236;2023-02-12T19:45:16;5.10;99.90
34768;DHT22;21755;43.608;1.236;2023-02-12T19:47:42;5.00;99.90
34768;DHT22;21755;43.608;1.236;2023-02-12T19:50:08;4.90;99.90
34768;DHT22;21755;43.608;1.236;2023-02-12T19:52:35;4.80;99.90
34768;DHT22;21755;43.608;1.236;2023-02-12T19:55:01;4.70;99.90
34768;DHT22;21755;43.608;1.236;2023-02-12T19:57:27;4.80;99.90
34768;DHT22;21755;43.608;1.236;2023-02-12T19:59:53;4.80;99.90
34768;DHT22;21755;43.608;1.236;2023-02-12T20:02:18;4.80;99.90
34768;DHT22;21755;43.608;1.236;2023-02-12T20:04:44;4.80;99.90
34768;DHT22;21755;43.608;1.236;2023-02-12T20:07:11;4.70;99.90
34768;DHT22;21755;43.608;1.236;2023-02-12T20:09:37;4.60;99.90
34768;DHT22;21755;43.608;1.236;2023-02-12T20:12:04;4.70;99.90
34768;DHT22;21755;43.608;1.236;2023-02-12T20:14:30;4.60;99.90
34768;DHT22;21755;43.608;1.236;2023-02-12T20:16:56;4.60;99.90
34768;DHT22;21755;43.608;1.236;2023-02-12T20:19:29;4.60;99.90
34768;DHT22;21755;43.608;1.236;2023-02-12T20:21:56;4.50;99.90
34768;DHT22;21755;43.608;1.236;2023-02-12T20:24:24;4.50;99.90
34768;DHT22;21755;43.608;1.236;2023-02-12T20:26:52;4.40;99.90
34768;DHT22;21755;43.608;1.236;2023-02-12T20:29:19;4.40;99.90
34768;DHT22;21755;43.608;1.236;2023-02-12T20:31:45;4.40;99.90
34768;DHT22;21755;43.608;1.236;2023-02-12T20:34:14;4.30;99.90
34768;DHT22;21755;43.608;1.236;2023-02-12T20:36:42;4.30;99.90
34768;DHT22;21755;43.608;1.236;2023-02-12T20:39:12;4.20;99.90
34768;DHT22;21755;43.608;1.236;2023-02-12T20:41:39;4.20;99.90
34768;DHT22;21755;43.608;1.236;2023-02-12T20:44:07;4.10;99.90
34768;DHT22;21755;43.608;1.236;2023-02-12T20:46:34;4.10;99.90
34768;DHT22;21755;43.608;1.236;2023-02-12T20:49:07;4.00;99.90
34768;DHT22;21755;43.608;1.236;2023-02-12T20:51:33;4.00;99.90
34768;DHT22;21755;43.608;1.236;2023-02-12T20:54:00;4.00;99.90
34768;DHT22;21755;43.608;1.236;2023-02-12T20:56:29;3.90;99.90
34768;DHT22;21755;43.608;1.236;2023-02-12T20:58:57;3.90;99.90
34768;DHT22;21755;43.608;1.236;2023-02-12T21:01:26;3.80;99.90
34768;DHT22;21755;43.608;1.236;2023-02-12T21:03:54;3.80;99.90
34768;DHT22;21755;43.608;1.236;2023-02-12T21:06:21;3.70;99.90
34768;DHT22;21755;43.608;1.236;2023-02-12T21:08:48;3.70;99.90
34768;DHT22;21755;43.608;1.236;2023-02-12T21:11:20;3.70;99.90
34768;DHT22;21755;43.608;1.236;2023-02-12T21:13:50;3.70;99.90
34768;DHT22;21755;43.608;1.236;2023-02-12T21:16:25;3.60;99.90
34768;DHT22;21755;43.608;1.236;2023-02-12T21:18:52;3.60;99.90
34768;DHT22;21755;43.608;1.236;2023-02-12T21:21:29;3.50;99.90
34768;DHT22;21755;43.608;1.236;2023-02-12T21:23:56;3.50;99.90
34768;DHT22;21755;43.608;1.236;2023-02-12T21:26:24;3.50;99.90
34768;DHT22;21755;43.608;1.236;2023-02-12T21:28:51;3.40;99.90
34768;DHT22;21755;43.608;1.236;2023-02-12T21:31:25;3.30;99.90
34768;DHT22;21755;43.608;1.236;2023-02-12T21:33:52;3.30;99.90
34768;DHT22;21755;43.608;1.236;2023-02-12T21:36:22;3.30;99.90
34768;DHT22;21755;43.608;1.236;2023-02-12T21:38:49;3.30;99.90
34768;DHT22;21755;43.608;1.236;2023-02-12T21:41:21;3.20;99.90
34768;DHT22;21755;43.608;1.236;2023-02-12T21:43:50;3.20;99.90
34768;DHT22;21755;43.608;1.236;2023-02-12T21:46:18;3.20;99.90
34768;DHT22;21755;43.608;1.236;2023-02-12T21:48:46;3.10;99.90
34768;DHT22;21755;43.608;1.236;2023-02-12T21:51:27;3.20;99.90
34768;DHT22;21755;43.608;1.236;2023-02-12T21:53:56;3.20;99.90
34768;DHT22;21755;43.608;1.236;2023-02-12T21:56:23;3.10;99.90
34768;DHT22;21755;43.608;1.236;2023-02-12T21:58:50;3.10;99.90
34768;DHT22;21755;43.608;1.236;2023-02-12T22:01:19;3.20;99.90
34768;DHT22;21755;43.608;1.236;2023-02-12T22:03:45;3.10;99.90
34768;DHT22;21755;43.608;1.236;2023-02-12T22:06:12;3.20;99.90
34768;DHT22;21755;43.608;1.236;2023-02-12T22:08:38;3.10;99.90
34768;DHT22;21755;43.608;1.236;2023-02-12T22:11:06;3.10;99.90
34768;DHT22;21755;43.608;1.236;2023-02-12T22:13:33;3.10;99.90